Ridgecrest, CA (93555)

01:07 PM PST am 23. Januar 2017 (GMT -0800)
StudioForge | | Change Station

Höhe 2313 ft 35.63 °N, 117.68 °W | Updated 1 minute ago

Wolkig
Wolkig
50.9 °F
gefühlte 50.9 °F
N
3.1
Wind Wechselnd Wind aus Nord
Gusts 5.4 mph

Heute
Max. -- | schwach -- °F
--% Regenrisiko
Gestern
Max. -- | schwach -- °F
Precip. -- inch
Druck 29.72 inch
Sichtweite 10.0 Meilen
Wolken Few 6000 ft
Teils Wolkig 16000 ft
Wolkig 20000 ft
Taupunkt 33 °F
Feuchtigkeit 50%
Regen 0.00 inch
Schneehöhe Nicht verfügbar..
6:56 AM 5:09 PM
Letztes Viertel, 16% visible
METAR KNID 232056Z 19011KT 10SM FEW060 SCT160 BKN200 09/M01 A2972 RMK AO2 SLP064 T00891006 58025 $
Druck 29.72 inch
Sichtweite 10.0 Meilen
Wolken Few 6000 ft
Teils Wolkig 16000 ft
Wolkig 20000 ft
Taupunkt 33 °F
Feuchtigkeit 50%
Regen 0.00 inch
Schneehöhe Nicht verfügbar..
6:56 AM 5:09 PM
Letztes Viertel, 16% visible
METAR KNID 232056Z 19011KT 10SM FEW060 SCT160 BKN200 09/M01 A2972 RMK AO2 SLP064 T00891006 58025 $

Get Your Daily Forecast Email!

Thanks for signing up!

Be on the lookout for a verification email in your inbox.

You'll start receiving the daily forecast at 8 AM.

×

10-Day Weather Forecast

Almanac

Astronomie

Jan. 23, 2017 Aufgang Untergang
Genaue Zeit
Bürgerliche Dämmerung
Nautische Dämmerung
Astronomische Dämmerung
Mond
Länge des sichtbaren Lichts
Tageslänge
Tomorrow will be .
, % of the Moon is Illuminated

Heutige Rekorde

State Highs State Lows

Community

WunderPhotos

Upload Photos

1,962,540 Fotos hochgeladen!

WunderBlog® & News

Nearby

Luftqualität

  Luftqualität LQ Index Schadstoff
Not available.

Schneehöhe

Station Depth Höhe

Erdbebenaktivität

Stadt Distance Mag. Time & Date
Minimum magnitude displayed is 2.5.

küstennahe Wassertemperaturen

Ort Temperatur

Stations

Wetterstationen in der Umgebung

Stationsstandort Temp. Windchill Taupunkt Feuchtigkeit Wind Precip. Höhe Aktualisiert Art
                   

Watches & Warnings

There are currently no watches in effect.